createdAt,value
2022-11-29T21:57:39.011Z,19.70
2022-11-29T22:00:09.349Z,21.30
2022-11-29T22:02:37.364Z,22.10
2022-11-29T22:05:05.260Z,20.90
2022-11-29T22:07:32.616Z,20.90
2022-11-29T22:10:09.999Z,21.40
2022-11-29T22:12:49.313Z,21.00
2022-11-29T22:15:24.519Z,21.70
2022-11-29T22:17:54.271Z,20.90
2022-11-29T22:20:21.642Z,20.10
2022-11-29T22:22:48.940Z,19.30
2022-11-29T22:25:16.747Z,19.30
2022-11-29T22:27:43.930Z,20.50
2022-11-29T22:30:12.461Z,20.10
2022-11-29T22:32:39.567Z,21.30
2022-11-29T22:35:07.739Z,19.90
2022-11-29T22:37:34.830Z,18.90
2022-11-29T22:40:02.049Z,18.10
2022-11-29T22:42:29.849Z,17.60
2022-11-29T22:44:57.236Z,17.50
2022-11-29T22:47:24.362Z,17.80
2022-11-29T22:49:51.573Z,16.70
2022-11-29T22:52:18.669Z,17.30
2022-11-29T22:54:46.027Z,18.20
2022-11-29T22:57:13.279Z,17.80
2022-11-29T22:59:40.335Z,18.90
2022-11-29T23:02:08.019Z,19.70
2022-11-29T23:04:35.442Z,20.10
2022-11-29T23:07:02.781Z,18.90
2022-11-29T23:09:30.240Z,19.90
2022-11-29T23:11:58.005Z,18.70
2022-11-29T23:14:26.079Z,18.60
2022-11-29T23:16:53.491Z,17.20
2022-11-29T23:19:21.056Z,17.70
2022-11-29T23:21:48.558Z,18.80
2022-11-29T23:24:16.322Z,17.90
2022-11-29T23:26:47.095Z,17.50
2022-11-29T23:29:16.150Z,18.50
2022-11-29T23:31:44.292Z,18.30
2022-11-29T23:34:12.187Z,19.50
2022-11-29T23:36:39.793Z,18.20
2022-11-29T23:39:07.768Z,19.60
2022-11-29T23:41:34.980Z,18.50
2022-11-29T23:44:03.672Z,19.60
2022-11-29T23:46:31.016Z,18.20
2022-11-29T23:48:58.591Z,17.70
2022-11-29T23:51:25.926Z,18.10
2022-11-29T23:53:55.844Z,18.40
2022-11-29T23:56:24.019Z,17.60
2022-11-29T23:58:51.511Z,17.80
